Station Historical Data
Daily Summary for January 19, 2017 Units:  English    Metric   Both
« Previous Day
Next Day »
Daily Weekly Monthly Yearly Custom
  High: Low: Average:
Temperature: 56.9 °F 36.8 °F 39 °F
Dew Point: 40.0 °F 35.5 °F 37.7 °F
Humidity: 96 % 53 % 95 %
Wind Speed: 21.0 mph 0.0 mph 5.7 mph
Wind Gust: 24.0 mph - -
Wind:- - South
Pressure: 30.11 in 29.73 in -
Precipitation: 0.00 in    
Historical Graphs
 
 
Tabular Data for January 19, 2017
Time Temperature Dew Point Pressure Wind Wind Speed Wind Gust Humidity Rainfall Rate (Hourly) solar
00:01 41.2 °F 39.9 °F 29.84 in South 20.0 mph 20.0 mph 95 % 0.00 in 0.00 W/m2
00:06 41.2 °F 39.9 °F 29.84 in South 10.0 mph 13.0 mph 95 % 0.07 in 0.00 W/m2
00:11 41.2 °F 39.9 °F 29.84 in South 7.0 mph 7.0 mph 95 % 0.07 in 0.00 W/m2
00:16 41.2 °F 39.9 °F 29.84 in South 20.0 mph 20.0 mph 95 % 0.07 in 0.00 W/m2
00:21 41.1 °F 39.8 °F 29.84 in SSE 7.0 mph 12.0 mph 95 % 0.06 in 0.00 W/m2
00:26 41.1 °F 39.8 °F 29.85 in South 7.0 mph 7.0 mph 95 % 0.05 in 0.00 W/m2
00:31 41.1 °F 39.8 °F 29.85 in SSW 13.0 mph 15.0 mph 95 % 0.05 in 0.00 W/m2
00:36 41.1 °F 39.8 °F 29.86 in SW 10.0 mph 19.0 mph 95 % 0.04 in 0.00 W/m2
00:41 41.1 °F 39.8 °F 29.85 in South 16.0 mph 16.0 mph 95 % 0.00 in 0.00 W/m2
00:46 41.0 °F 39.7 °F 29.86 in SSW 6.0 mph 14.0 mph 95 % 0.00 in 0.00 W/m2
00:51 41.0 °F 39.7 °F 29.86 in SSW 19.0 mph 20.0 mph 95 % 0.00 in 0.00 W/m2
00:56 41.0 °F 39.7 °F 29.85 in SSW 2.0 mph 9.0 mph 95 % 0.00 in 0.00 W/m2
01:01 40.9 °F 39.6 °F 29.85 in SSE 12.0 mph 15.0 mph 95 % 0.00 in 0.00 W/m2
01:06 40.9 °F 39.6 °F 29.86 in South 9.0 mph 18.0 mph 95 % 0.00 in 0.00 W/m2
01:11 40.9 °F 39.6 °F 29.86 in South 14.0 mph 14.0 mph 95 % 0.00 in 0.00 W/m2
01:16 40.9 °F 39.6 °F 29.86 in SSW 15.0 mph 15.0 mph 95 % 0.00 in 0.00 W/m2
01:21 40.9 °F 39.6 °F 29.85 in South 9.0 mph 15.0 mph 95 % 0.00 in 0.00 W/m2
01:26 40.9 °F 39.6 °F 29.86 in SSE 10.0 mph 18.0 mph 95 % 0.06 in 0.00 W/m2
01:31 40.9 °F 39.6 °F 29.86 in South 15.0 mph 15.0 mph 95 % 0.23 in 0.00 W/m2
01:36 41.0 °F 39.7 °F 29.86 in South 10.0 mph 12.0 mph 95 % 0.10 in 0.00 W/m2
01:41 40.9 °F 39.6 °F 29.86 in South 10.0 mph 16.0 mph 95 % 0.09 in 0.00 W/m2
01:46 41.0 °F 39.7 °F 29.86 in SSE 13.0 mph 17.0 mph 95 % 0.05 in 0.00 W/m2
01:51 41.0 °F 39.7 °F 29.86 in SSW 1.0 mph 11.0 mph 95 % 0.04 in 0.00 W/m2
01:56 41.0 °F 39.7 °F 29.86 in SSE 6.0 mph 13.0 mph 95 % 0.00 in 0.00 W/m2
02:02 41.0 °F 39.7 °F 29.86 in SW 5.0 mph 10.0 mph 95 % 0.00 in 0.00 W/m2
02:07 41.0 °F 39.7 °F 29.86 in South 18.0 mph 24.0 mph 95 % 0.00 in 0.00 W/m2
02:12 40.9 °F 39.6 °F 29.86 in Calm   12.0 mph 95 % 0.00 in 0.00 W/m2
02:17 41.0 °F 39.7 °F 29.86 in South 16.0 mph 18.0 mph 95 % 0.00 in 0.00 W/m2
02:22 41.0 °F 39.7 °F 29.86 in South 6.0 mph 11.0 mph 95 % 0.00 in 0.00 W/m2
02:27 41.0 °F 39.7 °F 29.86 in SSE 17.0 mph 19.0 mph 95 % 0.00 in 0.00 W/m2
02:32 41.0 °F 39.7 °F 29.86 in South 8.0 mph 13.0 mph 95 % 0.05 in 0.00 W/m2
02:37 41.0 °F 39.7 °F 29.86 in South 10.0 mph 19.0 mph 95 % 0.05 in 0.00 W/m2
02:42 41.0 °F 39.7 °F 29.86 in South 15.0 mph 16.0 mph 95 % 0.05 in 0.00 W/m2
02:47 41.1 °F 39.8 °F 29.86 in South 15.0 mph 15.0 mph 95 % 0.04 in 0.00 W/m2
02:52 41.0 °F 39.7 °F 29.86 in South 7.0 mph 12.0 mph 95 % 0.00 in 0.00 W/m2
02:57 41.0 °F 39.7 °F 29.86 in Calm   16.0 mph 95 % 0.00 in 0.00 W/m2
03:02 40.9 °F 39.6 °F 29.86 in South 14.0 mph 19.0 mph 95 % 0.13 in 0.00 W/m2
03:07 40.9 °F 39.6 °F 29.86 in SW 8.0 mph 8.0 mph 95 % 0.39 in 0.00 W/m2
03:12 40.9 °F 39.6 °F 29.85 in SSW 3.0 mph 8.0 mph 95 % 0.21 in 0.00 W/m2
03:17 40.9 °F 39.6 °F 29.86 in SSW 13.0 mph 15.0 mph 95 % 0.14 in 0.00 W/m2
03:22 40.9 °F 39.6 °F 29.86 in SSW 6.0 mph 13.0 mph 95 % 0.16 in 0.00 W/m2
03:27 40.7 °F 39.4 °F 29.85 in South 13.0 mph 21.0 mph 95 % 0.09 in 0.00 W/m2
03:32 40.6 °F 39.3 °F 29.85 in SSW 6.0 mph 13.0 mph 95 % 0.13 in 0.00 W/m2
03:37 40.3 °F 39.0 °F 29.85 in SSE 15.0 mph 21.0 mph 95 % 0.09 in 0.00 W/m2
03:42 40.2 °F 38.9 °F 29.85 in SSE 6.0 mph 10.0 mph 95 % 0.09 in 0.00 W/m2
03:47 40.3 °F 39.0 °F 29.85 in SSW 10.0 mph 16.0 mph 95 % 0.06 in 0.00 W/m2
03:52 40.5 °F 39.2 °F 29.85 in SSW 21.0 mph 23.0 mph 95 % 0.06 in 0.00 W/m2
03:57 40.7 °F 39.4 °F 29.85 in South 7.0 mph 20.0 mph 95 % 0.06 in 0.00 W/m2
04:02 40.8 °F 39.5 °F 29.85 in South 14.0 mph 21.0 mph 95 % 0.26 in 0.00 W/m2
04:07 40.8 °F 39.5 °F 29.85 in SSW 5.0 mph 20.0 mph 95 % 0.08 in 0.00 W/m2
04:12 40.6 °F 39.3 °F 29.85 in SSW 11.0 mph 17.0 mph 95 % 0.08 in 0.00 W/m2
04:17 40.5 °F 39.2 °F 29.85 in Calm   19.0 mph 95 % 0.16 in 0.00 W/m2
04:22 40.4 °F 39.1 °F 29.85 in SSW 8.0 mph 20.0 mph 95 % 0.10 in 0.00 W/m2
04:27 40.4 °F 39.1 °F 29.85 in SSE 10.0 mph 18.0 mph 95 % 0.06 in 0.00 W/m2
04:32 40.4 °F 39.1 °F 29.85 in SW 7.0 mph 14.0 mph 95 % 0.04 in 0.00 W/m2
04:37 40.2 °F 38.9 °F 29.86 in SSW 8.0 mph 11.0 mph 95 % 0.04 in 0.00 W/m2
04:42 40.0 °F 38.7 °F 29.85 in SSW 5.0 mph 13.0 mph 95 % 0.04 in 0.00 W/m2
04:47 39.9 °F 38.6 °F 29.85 in SSW 6.0 mph 13.0 mph 95 % 0.04 in 0.00 W/m2
04:52 39.7 °F 38.4 °F 29.86 in SW 11.0 mph 15.0 mph 95 % 0.00 in 0.00 W/m2
04:57 39.6 °F 38.3 °F 29.86 in SSW 11.0 mph 20.0 mph 95 % 0.15 in 0.00 W/m2
05:02 39.3 °F 38.0 °F 29.86 in South 7.0 mph 14.0 mph 95 % 0.07 in 0.00 W/m2
05:07 39.1 °F 37.8 °F 29.86 in South 1.0 mph 12.0 mph 95 % 0.05 in 0.00 W/m2
05:12 39.0 °F 37.7 °F 29.85 in SSW 5.0 mph 12.0 mph 95 % 0.05 in 0.00 W/m2
05:17 38.8 °F 37.5 °F 29.85 in SSW 4.0 mph 8.0 mph 95 % 0.05 in 0.00 W/m2
05:22 38.7 °F 37.4 °F 29.86 in South 3.0 mph 5.0 mph 95 % 0.04 in 0.00 W/m2
05:28 38.7 °F 37.4 °F 29.86 in South 4.0 mph 7.0 mph 95 % 0.00 in 0.00 W/m2
05:33 38.6 °F 37.3 °F 29.86 in SSE 8.0 mph 10.0 mph 95 % 0.00 in 0.00 W/m2
05:38 38.6 °F 37.3 °F 29.86 in SE 6.0 mph 11.0 mph 95 % 0.00 in 0.00 W/m2
05:43 38.6 °F 37.3 °F 29.87 in SSE 4.0 mph 12.0 mph 95 % 0.00 in 0.00 W/m2
05:48 38.5 °F 37.2 °F 29.87 in SSE 9.0 mph 14.0 mph 95 % 0.00 in 0.00 W/m2
05:53 38.5 °F 37.2 °F 29.87 in South 11.0 mph 13.0 mph 95 % 0.00 in 0.00 W/m2
05:58 38.4 °F 37.1 °F 29.87 in SE 7.0 mph 12.0 mph 95 % 0.00 in 0.00 W/m2
06:03 38.4 °F 37.1 °F 29.88 in South 9.0 mph 11.0 mph 95 % 0.00 in 0.00 W/m2
06:08 38.4 °F 37.1 °F 29.88 in SSE 7.0 mph 11.0 mph 95 % 0.00 in 0.00 W/m2
06:13 38.4 °F 37.1 °F 29.88 in SSE 9.0 mph 10.0 mph 95 % 0.00 in 0.00 W/m2
06:18 38.4 °F 37.1 °F 29.88 in SSE 7.0 mph 10.0 mph 95 % 0.00 in 0.00 W/m2
06:23 38.3 °F 37.0 °F 29.88 in South 4.0 mph 8.0 mph 95 % 0.00 in 0.00 W/m2
06:28 38.3 °F 37.0 °F 29.88 in South 5.0 mph 9.0 mph 95 % 0.00 in 0.00 W/m2
06:33 38.3 °F 37.0 °F 29.88 in SSE 6.0 mph 9.0 mph 95 % 0.00 in 0.00 W/m2
06:38 38.3 °F 37.0 °F 29.88 in South 9.0 mph 9.0 mph 95 % 0.00 in 0.00 W/m2
06:43 38.3 °F 37.0 °F 29.89 in South 1.0 mph 9.0 mph 95 % 0.58 in 0.00 W/m2
06:48 38.3 °F 37.0 °F 29.89 in South 9.0 mph 10.0 mph 95 % 0.40 in 0.00 W/m2
06:53 38.2 °F 36.9 °F 29.89 in SSE 8.0 mph 11.0 mph 95 % 0.09 in 0.00 W/m2
06:58 38.2 °F 36.9 °F 29.89 in South 4.0 mph 10.0 mph 95 % 0.05 in 0.00 W/m2
07:03 38.2 °F 36.9 °F 29.89 in Calm     95 % 0.04 in 0.00 W/m2
07:08 38.2 °F 36.9 °F 29.88 in South 5.0 mph 8.0 mph 95 % 0.00 in 0.00 W/m2
07:13 38.3 °F 37.0 °F 29.88 in Calm   5.0 mph 95 % 0.00 in 0.00 W/m2
07:18 38.3 °F 37.0 °F 29.88 in SSE 5.0 mph 10.0 mph 95 % 0.00 in 0.00 W/m2
07:23 38.4 °F 37.1 °F 29.89 in South 10.0 mph 10.0 mph 95 % 0.00 in 0.00 W/m2
07:28 38.5 °F 37.2 °F 29.88 in Calm   10.0 mph 95 % 0.00 in 0.00 W/m2
07:33 38.6 °F 37.3 °F 29.88 in SSE 9.0 mph 9.0 mph 95 % 0.00 in 0.00 W/m2
07:38 38.7 °F 37.4 °F 29.88 in South 13.0 mph 13.0 mph 95 % 0.00 in 0.00 W/m2
07:43 38.8 °F 37.5 °F 29.88 in SSE 1.0 mph 12.0 mph 95 % 0.00 in 7.00 W/m2
07:48 38.9 °F 37.6 °F 29.88 in SE 11.0 mph 14.0 mph 95 % 0.00 in 7.00 W/m2
07:53 39.0 °F 37.7 °F 29.88 in SE 7.0 mph 16.0 mph 95 % 0.00 in 5.00 W/m2
07:58 56.9 °F 40.0 °F 30.11 in Calm   3.0 mph 53 % 0.00 in W/m2
08:03 39.1 °F 37.8 °F 29.88 in SSE 9.0 mph 13.0 mph 95 % 0.00 in 11.00 W/m2
08:08 39.1 °F 37.8 °F 29.88 in South 10.0 mph 15.0 mph 95 % 0.00 in 14.00 W/m2
08:13 39.2 °F 37.9 °F 29.88 in South 14.0 mph 16.0 mph 95 % 0.00 in 14.00 W/m2
08:18 39.2 °F 37.9 °F 29.88 in SSE 9.0 mph 13.0 mph 95 % 0.00 in 11.00 W/m2
08:23 39.2 °F 37.9 °F 29.89 in SSE 4.0 mph 13.0 mph 95 % 0.00 in 7.00 W/m2
08:28 39.3 °F 38.0 °F 29.89 in South 7.0 mph 14.0 mph 95 % 0.00 in 5.00 W/m2
08:33 39.3 °F 38.0 °F 29.89 in South 7.0 mph 10.0 mph 95 % 0.21 in 7.00 W/m2
08:38 39.3 °F 38.0 °F 29.90 in Calm   15.0 mph 95 % 0.22 in 5.00 W/m2
08:43 39.2 °F 37.9 °F 29.91 in SSW 9.0 mph 19.0 mph 95 % 0.17 in 5.00 W/m2
08:48 38.9 °F 37.6 °F 29.92 in WSW 9.0 mph 18.0 mph 95 % 0.18 in 0.00 W/m2
08:53 38.7 °F 37.4 °F 29.92 in West 6.0 mph 13.0 mph 95 % 0.31 in 0.00 W/m2
08:58 38.1 °F 36.8 °F 29.92 in Calm   7.0 mph 95 % 0.47 in 5.00 W/m2
09:03 37.5 °F 36.2 °F 29.92 in Calm     95 % 0.26 in 19.00 W/m2
09:08 37.0 °F 35.7 °F 29.92 in Calm     95 % 0.12 in 9.00 W/m2
09:13 36.8 °F 35.5 °F 29.92 in Calm     95 % 0.07 in 12.00 W/m2
09:18 36.8 °F 35.5 °F 29.92 in Calm     95 % 0.14 in 65.00 W/m2
09:23 36.8 °F 35.5 °F 29.93 in Calm     95 % 0.20 in 40.00 W/m2
09:28 36.9 °F 35.6 °F 29.93 in Calm     95 % 0.12 in 21.00 W/m2
09:34 36.9 °F 35.6 °F 29.94 in Calm     95 % 0.06 in 12.00 W/m2
09:39 37.1 °F 35.8 °F 29.94 in Calm     95 % 0.04 in 25.00 W/m2
09:44 37.2 °F 35.9 °F 29.94 in South 8.0 mph 13.0 mph 95 % 0.00 in 19.00 W/m2
09:49 37.4 °F 36.1 °F 29.94 in South 9.0 mph 11.0 mph 95 % 0.00 in 30.00 W/m2
09:54 37.5 °F 36.2 °F 29.94 in SSE 12.0 mph 13.0 mph 95 % 0.00 in 44.00 W/m2
09:59 37.7 °F 36.4 °F 29.94 in Calm   10.0 mph 95 % 0.00 in 42.00 W/m2
10:04 37.9 °F 36.6 °F 29.94 in SSW 5.0 mph 11.0 mph 95 % 0.00 in 32.00 W/m2
10:09 38.0 °F 36.7 °F 29.94 in Calm   1.0 mph 95 % 0.00 in 58.00 W/m2
10:14 38.2 °F 36.9 °F 29.94 in South 5.0 mph 10.0 mph 95 % 0.00 in 35.00 W/m2
10:19 38.3 °F 37.0 °F 29.95 in SSE 7.0 mph 9.0 mph 95 % 0.00 in 46.00 W/m2
10:24 38.3 °F 37.0 °F 29.94 in Calm   12.0 mph 95 % 0.00 in 81.00 W/m2
10:29 38.4 °F 37.1 °F 29.94 in Calm     95 % 0.00 in 109.00 W/m2
10:34 38.4 °F 37.1 °F 29.94 in Calm     95 % 0.00 in 63.00 W/m2
10:39 38.5 °F 37.2 °F 29.94 in Calm     95 % 0.00 in 62.00 W/m2
10:44 38.5 °F 37.2 °F 29.94 in SSE 9.0 mph 11.0 mph 95 % 0.00 in 72.00 W/m2
10:49 38.5 °F 37.2 °F 29.94 in SSE 4.0 mph 10.0 mph 95 % 0.00 in 86.00 W/m2
10:54 38.5 °F 37.2 °F 29.94 in SSE 1.0 mph 10.0 mph 95 % 0.00 in 91.00 W/m2
10:59 38.5 °F 37.2 °F 29.94 in Calm     95 % 0.00 in 83.00 W/m2
11:04 38.5 °F 37.2 °F 29.94 in SE 5.0 mph 11.0 mph 95 % 0.00 in 65.00 W/m2
11:09 38.5 °F 37.2 °F 29.94 in SE 8.0 mph 13.0 mph 95 % 0.00 in 100.00 W/m2
11:14 38.5 °F 37.2 °F 29.94 in SE 6.0 mph 10.0 mph 95 % 0.00 in 139.00 W/m2
11:19 38.5 °F 37.2 °F 29.94 in SSE 6.0 mph 11.0 mph 95 % 0.00 in 90.00 W/m2
11:24 38.5 °F 37.2 °F 29.94 in Calm   10.0 mph 95 % 0.00 in 127.00 W/m2
11:29 38.4 °F 37.1 °F 29.93 in Calm   9.0 mph 95 % 0.00 in 83.00 W/m2
11:34 38.5 °F 37.2 °F 29.93 in SE 8.0 mph 10.0 mph 95 % 0.00 in 135.00 W/m2
11:39 38.5 °F 37.2 °F 29.93 in ESE 6.0 mph 11.0 mph 95 % 0.00 in 130.00 W/m2
11:44 38.6 °F 37.3 °F 29.93 in SE 7.0 mph 12.0 mph 95 % 0.00 in 142.00 W/m2
11:49 38.7 °F 37.4 °F 29.92 in SE 11.0 mph 12.0 mph 95 % 0.00 in 109.00 W/m2
11:54 38.8 °F 37.5 °F 29.92 in SE 2.0 mph 8.0 mph 95 % 0.00 in 67.00 W/m2
11:59 38.8 °F 37.5 °F 29.92 in SE 4.0 mph 9.0 mph 95 % 0.00 in 79.00 W/m2
12:04 38.8 °F 37.5 °F 29.92 in Calm     95 % 0.00 in 49.00 W/m2
12:09 38.8 °F 37.5 °F 29.92 in Calm   1.0 mph 95 % 0.00 in 47.00 W/m2
12:14 38.8 °F 37.5 °F 29.91 in Calm     95 % 0.09 in 69.00 W/m2
12:19 38.8 °F 37.5 °F 29.91 in Calm     95 % 0.09 in 63.00 W/m2
12:24 38.8 °F 37.5 °F 29.91 in Calm     95 % 0.10 in 40.00 W/m2
12:29 38.8 °F 37.5 °F 29.91 in Calm     95 % 0.23 in 88.00 W/m2
12:34 38.7 °F 37.4 °F 29.90 in Calm     95 % 0.16 in 137.00 W/m2
12:39 38.7 °F 37.4 °F 29.90 in Calm     95 % 0.16 in 54.00 W/m2
12:44 38.7 °F 37.4 °F 29.90 in Calm     95 % 0.19 in 46.00 W/m2
12:49 38.8 °F 37.5 °F 29.90 in Calm     95 % 0.10 in 26.00 W/m2
12:54 38.7 °F 37.4 °F 29.90 in Calm     95 % 0.22 in 26.00 W/m2
12:59 38.7 °F 37.4 °F 29.90 in Calm     95 % 0.16 in 18.00 W/m2
13:04 38.7 °F 37.4 °F 29.89 in Calm     95 % 0.18 in 12.00 W/m2
13:09 38.7 °F 37.4 °F 29.89 in Calm     95 % 0.29 in 26.00 W/m2
13:15 38.7 °F 37.4 °F 29.89 in Calm     95 % 0.14 in 32.00 W/m2
13:20 38.7 °F 37.4 °F 29.89 in Calm     95 % 0.22 in 26.00 W/m2
13:25 38.6 °F 37.3 °F 29.89 in Calm     95 % 0.15 in 42.00 W/m2
13:30 38.6 °F 37.3 °F 29.89 in SSE 2.0 mph 9.0 mph 95 % 0.08 in 102.00 W/m2
13:35 38.5 °F 37.2 °F 29.89 in Calm     95 % 0.08 in 95.00 W/m2
13:40 38.6 °F 37.3 °F 29.89 in Calm     95 % 0.05 in 97.00 W/m2
13:45 38.6 °F 37.3 °F 29.88 in Calm     95 % 0.00 in 58.00 W/m2
13:50 38.7 °F 37.4 °F 29.88 in Calm     95 % 0.00 in 58.00 W/m2
13:55 38.8 °F 37.5 °F 29.88 in Calm     95 % 0.00 in 51.00 W/m2
14:00 38.8 °F 37.5 °F 29.88 in Calm     95 % 0.00 in 49.00 W/m2
14:05 38.8 °F 37.5 °F 29.88 in Calm     95 % 0.00 in 70.00 W/m2
14:10 38.8 °F 37.5 °F 29.88 in Calm     95 % 0.00 in 83.00 W/m2
14:15 38.8 °F 37.5 °F 29.88 in Calm   8.0 mph 95 % 0.04 in 90.00 W/m2
14:20 38.9 °F 37.6 °F 29.88 in Calm     95 % 0.04 in 46.00 W/m2
14:25 39.0 °F 37.7 °F 29.88 in Calm     95 % 0.04 in 49.00 W/m2
14:30 39.1 °F 37.8 °F 29.87 in SE 6.0 mph 9.0 mph 95 % 0.04 in 26.00 W/m2
14:35 39.1 °F 37.8 °F 29.87 in SE 8.0 mph 8.0 mph 95 % 0.04 in 33.00 W/m2
14:40 39.1 °F 37.8 °F 29.87 in Calm   1.0 mph 95 % 0.04 in 40.00 W/m2
14:45 39.2 °F 37.9 °F 29.87 in SSE 6.0 mph 10.0 mph 95 % 0.00 in 37.00 W/m2
14:50 39.2 °F 37.9 °F 29.87 in Calm   12.0 mph 95 % 0.00 in 42.00 W/m2
14:55 39.1 °F 37.8 °F 29.87 in SSE 9.0 mph 10.0 mph 95 % 0.00 in 26.00 W/m2
15:00 39.0 °F 37.7 °F 29.87 in SSE 6.0 mph 13.0 mph 95 % 0.13 in 26.00 W/m2
15:05 38.9 °F 37.6 °F 29.87 in SSE 4.0 mph 11.0 mph 95 % 0.20 in 33.00 W/m2
15:10 38.8 °F 37.5 °F 29.87 in SE 7.0 mph 11.0 mph 95 % 0.13 in 51.00 W/m2
15:15 38.7 °F 37.4 °F 29.87 in Calm   9.0 mph 95 % 0.06 in 67.00 W/m2
15:20 38.6 °F 37.3 °F 29.87 in South 4.0 mph 13.0 mph 95 % 0.04 in 44.00 W/m2
15:25 38.6 °F 37.3 °F 29.87 in SSE 7.0 mph 10.0 mph 95 % 0.00 in 40.00 W/m2
15:30 38.5 °F 37.2 °F 29.87 in SE 7.0 mph 11.0 mph 95 % 0.15 in 33.00 W/m2
15:35 38.5 °F 37.2 °F 29.87 in SE 2.0 mph 10.0 mph 95 % 0.10 in 47.00 W/m2
15:40 38.5 °F 37.2 °F 29.87 in SE 7.0 mph 9.0 mph 95 % 0.05 in 60.00 W/m2
15:45 38.6 °F 37.3 °F 29.87 in SE 4.0 mph 17.0 mph 95 % 0.04 in 54.00 W/m2
15:50 38.6 °F 37.3 °F 29.87 in SE 7.0 mph 11.0 mph 95 % 0.00 in 49.00 W/m2
15:55 38.6 °F 37.3 °F 29.87 in SE 7.0 mph 10.0 mph 95 % 0.00 in 53.00 W/m2
16:00 38.7 °F 37.4 °F 29.87 in SE 1.0 mph 10.0 mph 95 % 0.00 in 81.00 W/m2
16:05 38.8 °F 37.5 °F 29.87 in SE 5.0 mph 9.0 mph 95 % 0.00 in 46.00 W/m2
16:10 38.8 °F 37.5 °F 29.87 in South 4.0 mph 11.0 mph 95 % 0.00 in 28.00 W/m2
16:15 38.9 °F 37.6 °F 29.88 in SE 9.0 mph 13.0 mph 95 % 0.00 in 32.00 W/m2
16:20 38.9 °F 37.6 °F 29.88 in SE 5.0 mph 10.0 mph 95 % 0.00 in 33.00 W/m2
16:26 39.0 °F 37.7 °F 29.88 in SE 2.0 mph 11.0 mph 95 % 0.00 in 18.00 W/m2
16:31 39.0 °F 37.7 °F 29.88 in SE 1.0 mph 10.0 mph 95 % 0.00 in 16.00 W/m2
16:36 39.0 °F 37.7 °F 29.88 in Calm   9.0 mph 95 % 0.00 in 62.00 W/m2
16:41 39.0 °F 37.7 °F 29.88 in Calm   9.0 mph 95 % 0.00 in 39.00 W/m2
16:46 39.0 °F 37.7 °F 29.88 in Calm     95 % 0.00 in 12.00 W/m2
16:51 39.0 °F 37.7 °F 29.88 in Calm   10.0 mph 95 % 0.00 in 7.00 W/m2
16:56 39.0 °F 37.7 °F 29.88 in Calm     95 % 0.00 in 7.00 W/m2
17:01 39.0 °F 37.7 °F 29.88 in Calm     95 % 0.00 in 5.00 W/m2
17:06 38.9 °F 37.6 °F 29.88 in Calm     95 % 0.00 in 0.00 W/m2
17:11 38.9 °F 37.6 °F 29.88 in Calm     95 % 0.00 in 0.00 W/m2
17:16 38.8 °F 37.5 °F 29.88 in Calm     95 % 0.00 in 0.00 W/m2
17:21 38.8 °F 37.5 °F 29.88 in Calm     95 % 0.00 in 0.00 W/m2
17:26 38.8 °F 37.5 °F 29.88 in Calm     95 % 0.00 in 0.00 W/m2
17:31 38.8 °F 37.5 °F 29.88 in Calm     95 % 0.00 in 0.00 W/m2
17:36 38.8 °F 37.5 °F 29.88 in Calm     95 % 0.00 in 0.00 W/m2
17:41 38.8 °F 37.5 °F 29.88 in Calm     95 % 0.00 in 0.00 W/m2
17:46 38.8 °F 37.5 °F 29.88 in Calm     95 % 0.00 in 0.00 W/m2
17:51 38.8 °F 37.5 °F 29.88 in Calm     95 % 0.00 in 0.00 W/m2
17:56 38.8 °F 37.5 °F 29.87 in Calm     95 % 0.00 in 0.00 W/m2
18:01 38.8 °F 37.5 °F 29.87 in ESE 12.0 mph 15.0 mph 95 % 0.00 in 0.00 W/m2
18:06 38.9 °F 37.6 °F 29.87 in Calm   13.0 mph 95 % 0.00 in 0.00 W/m2
18:11 38.9 °F 37.6 °F 29.87 in SE 9.0 mph 9.0 mph 95 % 0.00 in 0.00 W/m2
18:16 38.9 °F 37.6 °F 29.86 in SSE 11.0 mph 12.0 mph 95 % 0.00 in 0.00 W/m2
18:21 38.9 °F 37.6 °F 29.86 in SE 5.0 mph 10.0 mph 95 % 0.00 in 0.00 W/m2
18:26 38.9 °F 37.6 °F 29.86 in SE 7.0 mph 9.0 mph 95 % 0.00 in 0.00 W/m2
18:31 38.9 °F 37.6 °F 29.86 in SSE 8.0 mph 8.0 mph 95 % 0.00 in 0.00 W/m2
18:36 39.0 °F 37.7 °F 29.85 in Calm     95 % 0.00 in 0.00 W/m2
18:41 39.0 °F 37.7 °F 29.85 in SSE 7.0 mph 10.0 mph 95 % 0.00 in 0.00 W/m2
18:46 39.0 °F 37.7 °F 29.85 in SE 4.0 mph 4.0 mph 95 % 0.00 in 0.00 W/m2
18:51 39.1 °F 37.8 °F 29.84 in SSE 7.0 mph 7.0 mph 95 % 0.00 in 0.00 W/m2
18:56 39.1 °F 37.8 °F 29.84 in SSE 6.0 mph 9.0 mph 95 % 0.00 in 0.00 W/m2
19:01 39.2 °F 37.9 °F 29.84 in Calm     95 % 0.00 in 0.00 W/m2
19:06 39.2 °F 37.9 °F 29.84 in Calm     95 % 0.00 in 0.00 W/m2
19:11 39.2 °F 37.9 °F 29.83 in Calm     95 % 0.00 in 0.00 W/m2
19:16 39.3 °F 38.3 °F 29.84 in Calm     96 % 0.00 in 0.00 W/m2
19:21 39.3 °F 38.3 °F 29.83 in Calm     96 % 0.43 in 0.00 W/m2
19:26 39.2 °F 38.2 °F 29.84 in South 9.0 mph 12.0 mph 96 % 0.43 in 0.00 W/m2
19:31 39.1 °F 37.8 °F 29.83 in SSE 7.0 mph 10.0 mph 95 % 0.15 in 0.00 W/m2
19:36 38.9 °F 37.6 °F 29.83 in SSE 7.0 mph 10.0 mph 95 % 0.15 in 0.00 W/m2
19:41 38.8 °F 37.5 °F 29.83 in SSE 9.0 mph 9.0 mph 95 % 0.15 in 0.00 W/m2
19:46 38.7 °F 37.4 °F 29.83 in Calm     95 % 0.12 in 0.00 W/m2
19:51 38.6 °F 37.3 °F 29.83 in Calm     95 % 0.28 in 0.00 W/m2
19:57 38.4 °F 37.1 °F 29.83 in Calm     95 % 0.23 in 0.00 W/m2
20:01 38.3 °F 37.0 °F 29.83 in Calm     95 % 0.22 in 0.00 W/m2
20:07 38.2 °F 36.9 °F 29.83 in Calm     95 % 0.16 in 0.00 W/m2
20:12 38.2 °F 36.9 °F 29.83 in SSE 7.0 mph 12.0 mph 95 % 0.20 in 0.00 W/m2
20:17 38.2 °F 36.9 °F 29.83 in South 12.0 mph 16.0 mph 95 % 0.20 in 0.00 W/m2
20:22 38.2 °F 36.9 °F 29.82 in SSE 2.0 mph 9.0 mph 95 % 0.27 in 0.00 W/m2
20:27 38.1 °F 36.8 °F 29.81 in SSE 2.0 mph 8.0 mph 95 % 0.10 in 0.00 W/m2
20:32 38.1 °F 36.8 °F 29.82 in SSE 6.0 mph 10.0 mph 95 % 0.06 in 0.00 W/m2
20:37 38.0 °F 36.7 °F 29.81 in SSE 5.0 mph 10.0 mph 95 % 0.04 in 0.00 W/m2
20:42 38.0 °F 36.7 °F 29.81 in SSE 12.0 mph 14.0 mph 95 % 0.00 in 0.00 W/m2
20:47 38.0 °F 36.7 °F 29.81 in SSE 6.0 mph 9.0 mph 95 % 0.00 in 0.00 W/m2
20:52 38.1 °F 36.8 °F 29.80 in SSE 5.0 mph 11.0 mph 95 % 0.00 in 0.00 W/m2
20:57 38.1 °F 36.8 °F 29.80 in SE 12.0 mph 15.0 mph 95 % 0.00 in 0.00 W/m2
21:02 38.1 °F 36.8 °F 29.80 in SSE 4.0 mph 9.0 mph 95 % 0.04 in 0.00 W/m2
21:07 38.2 °F 36.9 °F 29.80 in SSE 11.0 mph 12.0 mph 95 % 0.04 in 0.00 W/m2
21:12 38.2 °F 36.9 °F 29.80 in ESE 11.0 mph 15.0 mph 95 % 0.04 in 0.00 W/m2
21:17 38.2 °F 36.9 °F 29.80 in South 13.0 mph 17.0 mph 95 % 0.04 in 0.00 W/m2
21:22 38.2 °F 36.9 °F 29.80 in South 11.0 mph 11.0 mph 95 % 0.00 in 0.00 W/m2
21:27 38.2 °F 36.9 °F 29.80 in SSE 6.0 mph 10.0 mph 95 % 0.00 in 0.00 W/m2
21:32 38.3 °F 37.0 °F 29.80 in SSE 8.0 mph 8.0 mph 95 % 0.00 in 0.00 W/m2
21:37 38.3 °F 37.0 °F 29.80 in South 3.0 mph 10.0 mph 95 % 0.00 in 0.00 W/m2
21:42 38.3 °F 37.0 °F 29.81 in SSE 5.0 mph 9.0 mph 95 % 0.00 in 0.00 W/m2
21:47 38.3 °F 37.0 °F 29.81 in South 10.0 mph 14.0 mph 95 % 0.00 in 0.00 W/m2
21:52 38.2 °F 36.9 °F 29.81 in SSE 9.0 mph 17.0 mph 95 % 0.21 in 0.00 W/m2
21:57 38.1 °F 36.8 °F 29.81 in South 8.0 mph 19.0 mph 95 % 0.19 in 0.00 W/m2
22:02 37.9 °F 36.6 °F 29.81 in South 19.0 mph 19.0 mph 95 % 0.27 in 0.00 W/m2
22:07 37.7 °F 36.4 °F 29.81 in South 8.0 mph 21.0 mph 95 % 0.28 in 0.00 W/m2
22:12 37.4 °F 36.1 °F 29.81 in South 18.0 mph 18.0 mph 95 % 0.20 in 0.00 W/m2
22:17 37.1 °F 35.8 °F 29.80 in SSE 13.0 mph 16.0 mph 95 % 0.14 in 0.00 W/m2
22:22 37.0 °F 35.7 °F 29.80 in South 7.0 mph 10.0 mph 95 % 0.12 in 0.00 W/m2
22:27 37.0 °F 35.7 °F 29.80 in SSW 14.0 mph 20.0 mph 95 % 0.09 in 0.00 W/m2
22:32 37.1 °F 35.8 °F 29.79 in WSW 6.0 mph 13.0 mph 95 % 0.06 in 0.00 W/m2
22:37 37.1 °F 35.8 °F 29.78 in South 1.0 mph 14.0 mph 95 % 0.05 in 0.00 W/m2
22:42 37.1 °F 35.8 °F 29.78 in South 7.0 mph 10.0 mph 95 % 0.05 in 0.00 W/m2
22:47 37.1 °F 35.8 °F 29.78 in SSE 12.0 mph 12.0 mph 95 % 0.07 in 0.00 W/m2
22:52 37.2 °F 35.9 °F 29.78 in SSE 9.0 mph 14.0 mph 95 % 0.09 in 0.00 W/m2
22:57 37.2 °F 35.9 °F 29.78 in South 10.0 mph 14.0 mph 95 % 0.14 in 0.00 W/m2
23:02 37.3 °F 36.0 °F 29.77 in SE 8.0 mph 14.0 mph 95 % 0.06 in 0.00 W/m2
23:07 37.3 °F 36.0 °F 29.76 in South 9.0 mph 15.0 mph 95 % 0.04 in 0.00 W/m2
23:12 37.3 °F 36.0 °F 29.76 in SE 10.0 mph 12.0 mph 95 % 0.00 in 0.00 W/m2
23:17 37.3 °F 36.0 °F 29.76 in SSW 6.0 mph 9.0 mph 95 % 0.28 in 0.00 W/m2
23:22 37.4 °F 36.1 °F 29.76 in SSE 9.0 mph 14.0 mph 95 % 0.10 in 0.00 W/m2
23:27 37.4 °F 36.1 °F 29.75 in South 9.0 mph 12.0 mph 95 % 0.06 in 0.00 W/m2
23:32 37.4 °F 36.1 °F 29.75 in South 1.0 mph 12.0 mph 95 % 0.05 in 0.00 W/m2
23:37 37.5 °F 36.2 °F 29.75 in SSE 5.0 mph 10.0 mph 95 % 0.05 in 0.00 W/m2
23:42 37.6 °F 36.3 °F 29.74 in SW 14.0 mph 20.0 mph 95 % 0.06 in 0.00 W/m2
23:47 37.7 °F 36.7 °F 29.74 in SE 14.0 mph 17.0 mph 96 % 0.06 in 0.00 W/m2
23:52 37.9 °F 36.6 °F 29.74 in SSE 15.0 mph 20.0 mph 95 % 0.04 in 0.00 W/m2
23:57 38.0 °F 36.7 °F 29.73 in South 8.0 mph 18.0 mph 95 % 0.00 in 0.00 W/m2
Juneau County Weather
Compliments of Weather Underground - 4.5 mb
 WU-history PHP script courtesy of   Juneau County Weather.
powered by Cumulus v1.9.3 (1059)
Ambient Weather VWS v14.00
Top Contact Website Map Copyright © 2007 - 2018 Foresthillweather.com Never base important decisions on this or any weather information obtained from the Internet